sensor_id;sensor_type;location;lat;lon;timestamp;pressure;altitude;pressure_sealevel;temperature;humidity
13314;BME280;6725;48.112;11.604;2023-02-01T00:02:09;95820.09;;;4.50;100.00
13314;BME280;6725;48.112;11.604;2023-02-01T00:04:34;95811.56;;;4.48;100.00
13314;BME280;6725;48.112;11.604;2023-02-01T00:07:00;95811.28;;;4.53;100.00
13314;BME280;6725;48.112;11.604;2023-02-01T00:09:26;95806.31;;;4.55;100.00
13314;BME280;6725;48.112;11.604;2023-02-01T00:11:51;95811.28;;;4.53;100.00
13314;BME280;6725;48.112;11.604;2023-02-01T00:14:16;95819.03;;;4.54;100.00
13314;BME280;6725;48.112;11.604;2023-02-01T00:16:42;95811.28;;;4.53;100.00
13314;BME280;6725;48.112;11.604;2023-02-01T00:19:11;95810.97;;;4.58;100.00
13314;BME280;6725;48.112;11.604;2023-02-01T00:21:37;95809.00;;;4.55;100.00
13314;BME280;6725;48.112;11.604;2023-02-01T00:24:03;95808.28;;;4.58;100.00
13314;BME280;6725;48.112;11.604;2023-02-01T00:26:35;95812.97;;;4.61;100.00
13314;BME280;6725;48.112;11.604;2023-02-01T00:29:03;95798.34;;;4.62;100.00
13314;BME280;6725;48.112;11.604;2023-02-01T00:31:29;95801.47;;;4.64;100.00
13314;BME280;6725;48.112;11.604;2023-02-01T00:33:54;95798.41;;;4.65;100.00
13314;BME280;6725;48.112;11.604;2023-02-01T00:36:20;95793.78;;;4.66;100.00
13314;BME280;6725;48.112;11.604;2023-02-01T00:38:45;95794.63;;;4.70;100.00
13314;BME280;6725;48.112;11.604;2023-02-01T00:41:13;95796.91;;;4.68;100.00
13314;BME280;6725;48.112;11.604;2023-02-01T00:43:39;95795.34;;;4.67;100.00
13314;BME280;6725;48.112;11.604;2023-02-01T00:46:05;95795.91;;;4.57;100.00
13314;BME280;6725;48.112;11.604;2023-02-01T00:48:31;95795.03;;;4.53;100.00
13314;BME280;6725;48.112;11.604;2023-02-01T00:51:05;95794.91;;;4.46;100.00
13314;BME280;6725;48.112;11.604;2023-02-01T00:53:31;95802.34;;;4.33;100.00
13314;BME280;6725;48.112;11.604;2023-02-01T00:55:57;95800.97;;;4.24;100.00
13314;BME280;6725;48.112;11.604;2023-02-01T00:58:23;95792.53;;;4.10;100.00
13314;BME280;6725;48.112;11.604;2023-02-01T01:03:28;95779.16;;;3.82;100.00
13314;BME280;6725;48.112;11.604;2023-02-01T01:05:58;95767.84;;;3.77;100.00
13314;BME280;6725;48.112;11.604;2023-02-01T01:08:24;95761.88;;;3.68;100.00
13314;BME280;6725;48.112;11.604;2023-02-01T01:10:49;95762.28;;;3.70;100.00
13314;BME280;6725;48.112;11.604;2023-02-01T01:13:15;95757.44;;;3.60;100.00
13314;BME280;6725;48.112;11.604;2023-02-01T01:15:41;95746.63;;;3.60;100.00
13314;BME280;6725;48.112;11.604;2023-02-01T01:18:07;95735.56;;;3.65;100.00
13314;BME280;6725;48.112;11.604;2023-02-01T01:20:38;95736.00;;;3.67;100.00
13314;BME280;6725;48.112;11.604;2023-02-01T01:23:05;95731.38;;;3.67;100.00
13314;BME280;6725;48.112;11.604;2023-02-01T01:25:31;95728.31;;;3.69;100.00
13314;BME280;6725;48.112;11.604;2023-02-01T01:27:56;95724.47;;;3.70;100.00
13314;BME280;6725;48.112;11.604;2023-02-01T01:30:22;95725.28;;;3.70;100.00
13314;BME280;6725;48.112;11.604;2023-02-01T01:32:47;95728.41;;;3.72;100.00
13314;BME280;6725;48.112;11.604;2023-02-01T01:35:12;95719.53;;;3.72;100.00
13314;BME280;6725;48.112;11.604;2023-02-01T01:37:38;95708.28;;;3.70;100.00
13314;BME280;6725;48.112;11.604;2023-02-01T01:40:05;95710.56;;;3.68;100.00
13314;BME280;6725;48.112;11.604;2023-02-01T01:42:30;95691.91;;;3.63;100.00
13314;BME280;6725;48.112;11.604;2023-02-01T01:45:04;95679.56;;;3.62;100.00
13314;BME280;6725;48.112;11.604;2023-02-01T01:47:44;95662.94;;;3.60;100.00
13314;BME280;6725;48.112;11.604;2023-02-01T01:50:15;95650.50;;;3.55;100.00
13314;BME280;6725;48.112;11.604;2023-02-01T01:52:43;95638.66;;;3.60;100.00
13314;BME280;6725;48.112;11.604;2023-02-01T01:55:11;95631.59;;;3.55;100.00
13314;BME280;6725;48.112;11.604;2023-02-01T01:57:41;95610.34;;;3.53;100.00
13314;BME280;6725;48.112;11.604;2023-02-01T02:00:14;95598.25;;;3.47;100.00
13314;BME280;6725;48.112;11.604;2023-02-01T02:02:43;95573.97;;;3.47;100.00
13314;BME280;6725;48.112;11.604;2023-02-01T02:05:10;95566.59;;;3.44;100.00
13314;BME280;6725;48.112;11.604;2023-02-01T02:07:39;95568.56;;;3.47;100.00
13314;BME280;6725;48.112;11.604;2023-02-01T02:10:07;95546.13;;;3.43;100.00
13314;BME280;6725;48.112;11.604;2023-02-01T02:12:38;95549.13;;;3.38;100.00
13314;BME280;6725;48.112;11.604;2023-02-01T02:15:05;95535.28;;;3.40;100.00
13314;BME280;6725;48.112;11.604;2023-02-01T02:31:52;95526.31;;;3.55;100.00
13314;BME280;6725;48.112;11.604;2023-02-01T02:37:04;95531.53;;;3.64;100.00
13314;BME280;6725;48.112;11.604;2023-02-01T02:42:50;95528.81;;;3.64;100.00
13314;BME280;6725;48.112;11.604;2023-02-01T02:49:11;95522.72;;;3.67;100.00
13314;BME280;6725;48.112;11.604;2023-02-01T02:51:49;95515.03;;;3.69;100.00
13314;BME280;6725;48.112;11.604;2023-02-01T02:54:37;95516.22;;;3.71;100.00
13314;BME280;6725;48.112;11.604;2023-02-01T02:57:14;95518.22;;;3.74;100.00
13314;BME280;6725;48.112;11.604;2023-02-01T03:00:01;95514.47;;;3.79;100.00
13314;BME280;6725;48.112;11.604;2023-02-01T03:02:48;95519.78;;;3.75;100.00
13314;BME280;6725;48.112;11.604;2023-02-01T03:05:39;95518.66;;;3.76;100.00
13314;BME280;6725;48.112;11.604;2023-02-01T03:08:16;95517.88;;;3.76;100.00
13314;BME280;6725;48.112;11.604;2023-02-01T03:16:22;95523.56;;;3.71;100.00
13314;BME280;6725;48.112;11.604;2023-02-01T03:19:09;95520.13;;;3.74;100.00
13314;BME280;6725;48.112;11.604;2023-02-01T03:21:40;95522.47;;;3.75;100.00
13314;BME280;6725;48.112;11.604;2023-02-01T03:24:30;95527.97;;;3.79;100.00
13314;BME280;6725;48.112;11.604;2023-02-01T03:32:37;95540.47;;;3.87;100.00
13314;BME280;6725;48.112;11.604;2023-02-01T03:35:28;95549.00;;;3.89;100.00
13314;BME280;6725;48.112;11.604;2023-02-01T03:38:01;95550.25;;;3.95;100.00
13314;BME280;6725;48.112;11.604;2023-02-01T03:40:32;95549.53;;;3.98;100.00
13314;BME280;6725;48.112;11.604;2023-02-01T03:42:59;95552.91;;;3.91;100.00
13314;BME280;6725;48.112;11.604;2023-02-01T03:45:36;95562.25;;;3.97;100.00
13314;BME280;6725;48.112;11.604;2023-02-01T03:48:08;95559.56;;;3.97;100.00
13314;BME280;6725;48.112;11.604;2023-02-01T03:50:38;95561.91;;;3.99;100.00
13314;BME280;6725;48.112;11.604;2023-02-01T03:53:08;95555.38;;;4.00;100.00
13314;BME280;6725;48.112;11.604;2023-02-01T03:55:36;95564.56;;;3.95;100.00
13314;BME280;6725;48.112;11.604;2023-02-01T03:58:22;95565.75;;;3.98;100.00
13314;BME280;6725;48.112;11.604;2023-02-01T04:00:53;95566.31;;;4.07;100.00
13314;BME280;6725;48.112;11.604;2023-02-01T04:03:20;95564.25;;;4.00;100.00
13314;BME280;6725;48.112;11.604;2023-02-01T04:05:47;95572.44;;;4.04;100.00
13314;BME280;6725;48.112;11.604;2023-02-01T04:08:13;95577.00;;;4.00;100.00
13314;BME280;6725;48.112;11.604;2023-02-01T04:10:38;95578.69;;;4.08;100.00
13314;BME280;6725;48.112;11.604;2023-02-01T04:13:03;95573.56;;;4.03;100.00
13314;BME280;6725;48.112;11.604;2023-02-01T04:15:29;95584.81;;;4.05;100.00
13314;BME280;6725;48.112;11.604;2023-02-01T04:17:54;95591.06;;;4.09;100.00
13314;BME280;6725;48.112;11.604;2023-02-01T04:20:20;95588.34;;;4.09;100.00
13314;BME280;6725;48.112;11.604;2023-02-01T04:22:45;95580.25;;;4.09;100.00
13314;BME280;6725;48.112;11.604;2023-02-01T04:25:10;95595.31;;;4.10;100.00
13314;BME280;6725;48.112;11.604;2023-02-01T04:27:36;95584.81;;;4.05;100.00
13314;BME280;6725;48.112;11.604;2023-02-01T04:30:03;95591.75;;;4.06;100.00
13314;BME280;6725;48.112;11.604;2023-02-01T04:32:28;95571.00;;;4.10;100.00
13314;BME280;6725;48.112;11.604;2023-02-01T04:34:53;95580.59;;;4.07;100.00
13314;BME280;6725;48.112;11.604;2023-02-01T04:37:19;95584.59;;;4.13;100.00
13314;BME280;6725;48.112;11.604;2023-02-01T04:39:44;95590.41;;;4.15;100.00
13314;BME280;6725;48.112;11.604;2023-02-01T04:42:09;95584.94;;;4.12;100.00
13314;BME280;6725;48.112;11.604;2023-02-01T04:44:35;95591.97;;;4.16;100.00
13314;BME280;6725;48.112;11.604;2023-02-01T04:47:02;95605.84;;;4.15;100.00
13314;BME280;6725;48.112;11.604;2023-02-01T04:49:27;95609.66;;;4.14;100.00
13314;BME280;6725;48.112;11.604;2023-02-01T04:51:53;95609.66;;;4.14;100.00
13314;BME280;6725;48.112;11.604;2023-02-01T04:54:18;95607.06;;;4.17;100.00
13314;BME280;6725;48.112;11.604;2023-02-01T04:56:43;95601.88;;;4.09;100.00
13314;BME280;6725;48.112;11.604;2023-02-01T04:59:11;95609.66;;;4.14;100.00
13314;BME280;6725;48.112;11.604;2023-02-01T05:01:36;95592.59;;;4.10;100.00
13314;BME280;6725;48.112;11.604;2023-02-01T05:04:02;95599.28;;;4.16;100.00
13314;BME280;6725;48.112;11.604;2023-02-01T05:06:27;95612.81;;;4.16;100.00
13314;BME280;6725;48.112;11.604;2023-02-01T05:08:53;95608.56;;;4.15;100.00
13314;BME280;6725;48.112;11.604;2023-02-01T05:11:18;95608.06;;;4.09;100.00
13314;BME280;6725;48.112;11.604;2023-02-01T05:14:02;95611.16;;;4.11;100.00
13314;BME280;6725;48.112;11.604;2023-02-01T05:16:27;95608.06;;;4.09;100.00
13314;BME280;6725;48.112;11.604;2023-02-01T05:18:53;95616.50;;;4.08;100.00
13314;BME280;6725;48.112;11.604;2023-02-01T05:21:20;95618.50;;;4.11;100.00
13314;BME280;6725;48.112;11.604;2023-02-01T05:23:46;95624.31;;;4.13;100.00
13314;BME280;6725;48.112;11.604;2023-02-01T05:26:30;95614.22;;;4.10;100.00
13314;BME280;6725;48.112;11.604;2023-02-01T05:28:55;95622.41;;;4.13;100.00
13314;BME280;6725;48.112;11.604;2023-02-01T05:31:21;95627.81;;;4.13;100.00
13314;BME280;6725;48.112;11.604;2023-02-01T05:33:47;95630.53;;;4.13;100.00
13314;BME280;6725;48.112;11.604;2023-02-01T05:36:13;95628.16;;;4.12;100.00
13314;BME280;6725;48.112;11.604;2023-02-01T05:38:38;95630.44;;;4.10;100.00
13314;BME280;6725;48.112;11.604;2023-02-01T05:41:04;95634.28;;;4.09;100.00
13314;BME280;6725;48.112;11.604;2023-02-01T05:43:29;95634.28;;;4.09;100.00
13314;BME280;6725;48.112;11.604;2023-02-01T05:45:55;95623.47;;;4.09;100.00
13314;BME280;6725;48.112;11.604;2023-02-01T05:48:20;95615.81;;;4.11;100.00
13314;BME280;6725;48.112;11.604;2023-02-01T05:50:45;95619.63;;;4.10;100.00
13314;BME280;6725;48.112;11.604;2023-02-01T05:53:12;95620.47;;;4.14;100.00
13314;BME280;6725;48.112;11.604;2023-02-01T05:55:37;95642.22;;;4.21;100.00
13314;BME280;6725;48.112;11.604;2023-02-01T05:58:03;95632.16;;;4.18;100.00
13314;BME280;6725;48.112;11.604;2023-02-01T06:00:29;95622.41;;;4.13;100.00
13314;BME280;6725;48.112;11.604;2023-02-01T06:02:55;95632.16;;;4.18;100.00
13314;BME280;6725;48.112;11.604;2023-02-01T06:05:20;95632.16;;;4.18;100.00
13314;BME280;6725;48.112;11.604;2023-02-01T06:07:45;95622.91;;;4.19;100.00
13314;BME280;6725;48.112;11.604;2023-02-01T06:10:11;95624.47;;;4.20;100.00
13314;BME280;6725;48.112;11.604;2023-02-01T06:12:37;95612.81;;;4.16;100.00
13314;BME280;6725;48.112;11.604;2023-02-01T06:15:02;95621.22;;;4.11;100.00
13314;BME280;6725;48.112;11.604;2023-02-01T06:17:28;95618.25;;;4.19;100.00
13314;BME280;6725;48.112;11.604;2023-02-01T06:19:53;95612.75;;;4.12;100.00
13314;BME280;6725;48.112;11.604;2023-02-01T06:22:19;95609.75;;;4.17;100.00
13314;BME280;6725;48.112;11.604;2023-02-01T06:24:44;95625.53;;;4.15;100.00
13314;BME280;6725;48.112;11.604;2023-02-01T06:27:10;95630.53;;;4.13;100.00
13314;BME280;6725;48.112;11.604;2023-02-01T06:29:35;95627.38;;;4.11;100.00
13314;BME280;6725;48.112;11.604;2023-02-01T06:32:01;95626.66;;;4.14;100.00
13314;BME280;6725;48.112;11.604;2023-02-01T06:34:26;95629.81;;;4.16;100.00
13314;BME280;6725;48.112;11.604;2023-02-01T06:36:52;95638.31;;;4.18;100.00
13314;BME280;6725;48.112;11.604;2023-02-01T06:39:18;95618.22;;;4.16;100.00
13314;BME280;6725;48.112;11.604;2023-02-01T06:41:47;95623.66;;;4.19;100.00
13314;BME280;6725;48.112;11.604;2023-02-01T06:44:14;95634.13;;;4.21;100.00
13314;BME280;6725;48.112;11.604;2023-02-01T06:46:39;95618.34;;;4.23;100.00
13314;BME280;6725;48.112;11.604;2023-02-01T06:49:05;95628.44;;;4.26;100.00
13314;BME280;6725;48.112;11.604;2023-02-01T06:51:30;95630.81;;;4.27;100.00
13314;BME280;6725;48.112;11.604;2023-02-01T06:53:56;95626.50;;;4.26;100.00
13314;BME280;6725;48.112;11.604;2023-02-01T06:56:22;95625.44;;;4.31;100.00
13314;BME280;6725;48.112;11.604;2023-02-01T06:58:48;95625.44;;;4.31;100.00
13314;BME280;6725;48.112;11.604;2023-02-01T07:01:15;95633.16;;;4.29;100.00
13314;BME280;6725;48.112;11.604;2023-02-01T07:03:41;95627.16;;;4.39;100.00
13314;BME280;6725;48.112;11.604;2023-02-01T07:06:07;95625.88;;;4.33;100.00
13314;BME280;6725;48.112;11.604;2023-02-01T07:08:36;95624.75;;;4.34;100.00
13314;BME280;6725;48.112;11.604;2023-02-01T07:11:04;95626.28;;;4.35;100.00
13314;BME280;6725;48.112;11.604;2023-02-01T07:13:29;95626.66;;;4.33;100.00
13314;BME280;6725;48.112;11.604;2023-02-01T07:15:58;95621.69;;;4.35;100.00
13314;BME280;6725;48.112;11.604;2023-02-01T07:18:23;95626.44;;;4.42;100.00
13314;BME280;6725;48.112;11.604;2023-02-01T07:20:51;95613.97;;;4.37;100.00
13314;BME280;6725;48.112;11.604;2023-02-01T07:23:17;95617.25;;;4.46;100.00
13314;BME280;6725;48.112;11.604;2023-02-01T07:25:42;95622.66;;;4.46;100.00
13314;BME280;6725;48.112;11.604;2023-02-01T07:28:07;95611.72;;;4.39;100.00
13314;BME280;6725;48.112;11.604;2023-02-01T07:30:33;95599.34;;;4.38;100.00
13314;BME280;6725;48.112;11.604;2023-02-01T07:32:58;95602.53;;;4.44;100.00
13314;BME280;6725;48.112;11.604;2023-02-01T07:35:27;95598.19;;;4.39;100.00
13314;BME280;6725;48.112;11.604;2023-02-01T07:37:52;95597.91;;;4.44;100.00
13314;BME280;6725;48.112;11.604;2023-02-01T07:40:18;95600.25;;;4.46;100.00
13314;BME280;6725;48.112;11.604;2023-02-01T07:42:43;95590.72;;;4.52;100.00
13314;BME280;6725;48.112;11.604;2023-02-01T07:45:09;95606.50;;;4.50;100.00
13314;BME280;6725;48.112;11.604;2023-02-01T07:47:34;95608.94;;;4.55;100.00
13314;BME280;6725;48.112;11.604;2023-02-01T07:49:59;95607.78;;;4.56;100.00
13314;BME280;6725;48.112;11.604;2023-02-01T07:57:18;95600.63;;;4.67;100.00
13314;BME280;6725;48.112;11.604;2023-02-01T07:59:44;95626.25;;;4.73;100.00
13314;BME280;6725;48.112;11.604;2023-02-01T08:02:28;95624.78;;;4.79;100.00
13314;BME280;6725;48.112;11.604;2023-02-01T08:04:53;95614.69;;;4.76;100.00
13314;BME280;6725;48.112;11.604;2023-02-01T08:07:18;95628.78;;;4.85;100.00
13314;BME280;6725;48.112;11.604;2023-02-01T08:09:44;95642.78;;;4.90;100.00
13314;BME280;6725;48.112;11.604;2023-02-01T08:12:09;95637.84;;;4.96;100.00
13314;BME280;6725;48.112;11.604;2023-02-01T08:14:34;95659.91;;;4.98;100.00
13314;BME280;6725;48.112;11.604;2023-02-01T08:17:00;95661.59;;;5.06;100.00
13314;BME280;6725;48.112;11.604;2023-02-01T08:19:25;95676.69;;;5.07;100.00
13314;BME280;6725;48.112;11.604;2023-02-01T08:21:50;95676.38;;;5.12;100.00
13314;BME280;6725;48.112;11.604;2023-02-01T08:24:16;95675.53;;;5.08;100.00
13314;BME280;6725;48.112;11.604;2023-02-01T08:26:41;95670.13;;;5.08;100.00
13314;BME280;6725;48.112;11.604;2023-02-01T08:29:08;95676.50;;;5.19;100.00
13314;BME280;6725;48.112;11.604;2023-02-01T08:31:35;95685.78;;;5.18;100.00
13314;BME280;6725;48.112;11.604;2023-02-01T08:34:02;95692.34;;;5.17;100.00
13314;BME280;6725;48.112;11.604;2023-02-01T08:36:30;95688.97;;;5.23;100.00
13314;BME280;6725;48.112;11.604;2023-02-01T08:38:56;95709.09;;;5.26;100.00
13314;BME280;6725;48.112;11.604;2023-02-01T08:41:27;95708.31;;;5.25;100.00
13314;BME280;6725;48.112;11.604;2023-02-01T08:43:54;95693.59;;;5.23;100.00
13314;BME280;6725;48.112;11.604;2023-02-01T08:46:20;95689.56;;;5.36;100.00
13314;BME280;6725;48.112;11.604;2023-02-01T08:48:47;95689.25;;;5.41;100.00
13314;BME280;6725;48.112;11.604;2023-02-01T08:51:13;95698.28;;;5.48;100.00
13314;BME280;6725;48.112;11.604;2023-02-01T08:53:40;95690.19;;;5.52;100.00
13314;BME280;6725;48.112;11.604;2023-02-01T08:56:06;95676.44;;;5.64;100.00
13314;BME280;6725;48.112;11.604;2023-02-01T08:58:32;95689.59;;;5.62;100.00
13314;BME280;6725;48.112;11.604;2023-02-01T09:01:05;95689.63;;;5.65;100.00
13314;BME280;6725;48.112;11.604;2023-02-01T09:03:31;95664.06;;;5.63;100.00
13314;BME280;6725;48.112;11.604;2023-02-01T09:06:04;95671.78;;;5.61;100.00
13314;BME280;6725;48.112;11.604;2023-02-01T09:08:31;95690.41;;;5.66;100.00
13314;BME280;6725;48.112;11.604;2023-02-01T09:11:04;95692.06;;;5.74;100.00
13314;BME280;6725;48.112;11.604;2023-02-01T09:13:30;95680.53;;;5.77;100.00
13314;BME280;6725;48.112;11.604;2023-02-01T09:15:56;95695.03;;;5.88;100.00
13314;BME280;6725;48.112;11.604;2023-02-01T09:18:22;95702.78;;;5.89;100.00
13314;BME280;6725;48.112;11.604;2023-02-01T09:20:47;95699.41;;;5.96;100.00
13314;BME280;6725;48.112;11.604;2023-02-01T09:23:12;95693.25;;;5.99;100.00
13314;BME280;6725;48.112;11.604;2023-02-01T09:25:38;95689.56;;;6.10;100.00
13314;BME280;6725;48.112;11.604;2023-02-01T09:28:04;95690.59;;;6.32;100.00
13314;BME280;6725;48.112;11.604;2023-02-01T09:30:32;95691.31;;;6.29;100.00
13314;BME280;6725;48.112;11.604;2023-02-01T09:32:58;95699.16;;;6.34;100.00
13314;BME280;6725;48.112;11.604;2023-02-01T09:35:23;95683.75;;;6.12;100.00
13314;BME280;6725;48.112;11.604;2023-02-01T09:37:48;95691.31;;;6.29;100.00
13314;BME280;6725;48.112;11.604;2023-02-01T09:40:15;95667.53;;;6.45;100.00
13314;BME280;6725;48.112;11.604;2023-02-01T09:45:15;95694.06;;;6.62;100.00
13314;BME280;6725;48.112;11.604;2023-02-01T09:47:54;95693.84;;;6.74;100.00
13314;BME280;6725;48.112;11.604;2023-02-01T09:50:24;95703.84;;;6.70;100.00
13314;BME280;6725;48.112;11.604;2023-02-01T09:53:17;95701.97;;;6.74;100.00
13314;BME280;6725;48.112;11.604;2023-02-01T09:55:49;95719.72;;;6.68;100.00
13314;BME280;6725;48.112;11.604;2023-02-01T09:58:35;95716.38;;;6.81;100.00
13314;BME280;6725;48.112;11.604;2023-02-01T10:01:04;95710.59;;;6.83;100.00
13314;BME280;6725;48.112;11.604;2023-02-01T10:03:33;95711.06;;;6.92;100.00
13314;BME280;6725;48.112;11.604;2023-02-01T10:17:07;95724.19;;;6.53;100.00
13314;BME280;6725;48.112;11.604;2023-02-01T10:22:32;95707.13;;;6.53;100.00
13314;BME280;6725;48.112;11.604;2023-02-01T10:25:22;95719.59;;;6.57;100.00
13314;BME280;6725;48.112;11.604;2023-02-01T10:27:51;95721.53;;;6.57;100.00
13314;BME280;6725;48.112;11.604;2023-02-01T10:30:26;95724.00;;;6.69;100.00
13314;BME280;6725;48.112;11.604;2023-02-01T10:33:00;95726.41;;;6.74;100.00
13314;BME280;6725;48.112;11.604;2023-02-01T10:35:33;95700.00;;;6.71;100.00
13314;BME280;6725;48.112;11.604;2023-02-01T10:38:02;95724.25;;;6.57;100.00
13314;BME280;6725;48.112;11.604;2023-02-01T10:40:28;95724.25;;;6.57;100.00
13314;BME280;6725;48.112;11.604;2023-02-01T10:42:57;95718.28;;;6.48;100.00
13314;BME280;6725;48.112;11.604;2023-02-01T10:45:26;95711.13;;;6.62;100.00
13314;BME280;6725;48.112;11.604;2023-02-01T10:47:53;95716.50;;;6.59;100.00
13314;BME280;6725;48.112;11.604;2023-02-01T10:53:03;95720.72;;;6.53;100.00
13314;BME280;6725;48.112;11.604;2023-02-01T10:55:48;95719.72;;;6.68;100.00
13314;BME280;6725;48.112;11.604;2023-02-01T10:58:27;95724.72;;;6.66;100.00
13314;BME280;6725;48.112;11.604;2023-02-01T11:00:56;95722.81;;;6.66;100.00
13314;BME280;6725;48.112;11.604;2023-02-01T11:03:54;95729.25;;;6.55;100.00
13314;BME280;6725;48.112;11.604;2023-02-01T11:06:36;95735.81;;;6.54;100.00
13314;BME280;6725;48.112;11.604;2023-02-01T11:11:31;95719.97;;;6.26;100.00
13314;BME280;6725;48.112;11.604;2023-02-01T11:14:01;95721.38;;;6.17;100.00
13314;BME280;6725;48.112;11.604;2023-02-01T11:16:36;95725.66;;;6.18;100.00
13314;BME280;6725;48.112;11.604;2023-02-01T11:19:03;95722.25;;;6.24;100.00
13314;BME280;6725;48.112;11.604;2023-02-01T11:21:28;95729.00;;;6.34;100.00
13314;BME280;6725;48.112;11.604;2023-02-01T11:23:54;95734.56;;;6.48;100.00
13314;BME280;6725;48.112;11.604;2023-02-01T11:26:24;95723.16;;;6.61;100.00
13314;BME280;6725;48.112;11.604;2023-02-01T11:28:54;95724.63;;;6.59;100.00
13314;BME280;6725;48.112;11.604;2023-02-01T11:31:23;95734.34;;;6.60;100.00
13314;BME280;6725;48.112;11.604;2023-02-01T11:33:52;95738.88;;;6.49;100.00
13314;BME280;6725;48.112;11.604;2023-02-01T11:36:22;95744.28;;;6.49;100.00
13314;BME280;6725;48.112;11.604;2023-02-01T11:41:27;95737.03;;;6.27;100.00
13314;BME280;6725;48.112;11.604;2023-02-01T11:43:58;95740.09;;;6.25;100.00
13314;BME280;6725;48.112;11.604;2023-02-01T11:46:31;95735.50;;;6.29;100.00
13314;BME280;6725;48.112;11.604;2023-02-01T11:49:15;95733.16;;;6.28;100.00
13314;BME280;6725;48.112;11.604;2023-02-01T12:06:06;95705.66;;;6.00;100.00
13314;BME280;6725;48.112;11.604;2023-02-01T12:19:35;95700.88;;;6.19;100.00
13314;BME280;6725;48.112;11.604;2023-02-01T12:30:45;95699.56;;;6.06;100.00
13314;BME280;6725;48.112;11.604;2023-02-01T12:38:36;95708.59;;;5.88;100.00
13314;BME280;6725;48.112;11.604;2023-02-01T12:44:39;95705.41;;;5.82;100.00
13314;BME280;6725;48.112;11.604;2023-02-01T12:52:19;95678.84;;;5.69;100.00
13314;BME280;6725;48.112;11.604;2023-02-01T12:54:55;95681.25;;;5.74;100.00
13314;BME280;6725;48.112;11.604;2023-02-01T12:57:28;95668.88;;;5.76;100.00
13314;BME280;6725;48.112;11.604;2023-02-01T13:02:40;95663.53;;;5.80;100.00
13314;BME280;6725;48.112;11.604;2023-02-01T13:05:22;95659.84;;;5.91;100.00
13314;BME280;6725;48.112;11.604;2023-02-01T13:07:56;95652.00;;;5.83;100.00
13314;BME280;6725;48.112;11.604;2023-02-01T13:10:38;95634.16;;;5.82;100.00
13314;BME280;6725;48.112;11.604;2023-02-01T13:15:49;95648.97;;;5.88;100.00
13314;BME280;6725;48.112;11.604;2023-02-01T13:18:21;95640.94;;;5.95;100.00
13314;BME280;6725;48.112;11.604;2023-02-01T13:20:55;95653.78;;;6.01;100.00
13314;BME280;6725;48.112;11.604;2023-02-01T13:23:29;95646.13;;;6.07;100.00
13314;BME280;6725;48.112;11.604;2023-02-01T13:25:55;95650.00;;;6.09;100.00
13314;BME280;6725;48.112;11.604;2023-02-01T13:36:47;95651.25;;;6.15;100.00
13314;BME280;6725;48.112;11.604;2023-02-01T13:42:03;95641.69;;;6.25;100.00
13314;BME280;6725;48.112;11.604;2023-02-01T13:44:39;95651.22;;;6.12;100.00
13314;BME280;6725;48.112;11.604;2023-02-01T13:47:42;95641.25;;;6.19;100.00
13314;BME280;6725;48.112;11.604;2023-02-01T13:52:57;95651.00;;;6.24;100.00
13314;BME280;6725;48.112;11.604;2023-02-01T13:55:30;95649.75;;;6.18;100.00
13314;BME280;6725;48.112;11.604;2023-02-01T13:58:28;95653.41;;;6.03;100.00
13314;BME280;6725;48.112;11.604;2023-02-01T14:01:34;95661.66;;;6.10;100.00
13314;BME280;6725;48.112;11.604;2023-02-01T14:04:05;95656.09;;;5.99;100.00
13314;BME280;6725;48.112;11.604;2023-02-01T14:09:10;95650.94;;;5.91;100.00
13314;BME280;6725;48.112;11.604;2023-02-01T14:11:37;95655.53;;;5.87;100.00
13314;BME280;6725;48.112;11.604;2023-02-01T14:19:26;95659.69;;;5.81;100.00
13314;BME280;6725;48.112;11.604;2023-02-01T14:21:54;95641.88;;;5.80;100.00
13314;BME280;6725;48.112;11.604;2023-02-01T14:24:28;95656.13;;;5.77;100.00
13314;BME280;6725;48.112;11.604;2023-02-01T14:27:30;95641.78;;;5.76;100.00
13314;BME280;6725;48.112;11.604;2023-02-01T14:29:53;95653.84;;;5.79;100.00
13314;BME280;6725;48.112;11.604;2023-02-01T14:32:26;95643.78;;;5.79;100.00
13314;BME280;6725;48.112;11.604;2023-02-01T14:34:58;95650.09;;;5.61;100.00
13314;BME280;6725;48.112;11.604;2023-02-01T14:37:31;95643.53;;;5.62;100.00
13314;BME280;6725;48.112;11.604;2023-02-01T14:40:04;95644.72;;;5.64;100.00
13314;BME280;6725;48.112;11.604;2023-02-01T14:47:43;95653.31;;;5.70;100.00
13314;BME280;6725;48.112;11.604;2023-02-01T15:00:57;95657.06;;;5.62;100.00
13314;BME280;6725;48.112;11.604;2023-02-01T15:03:38;95655.09;;;5.59;100.00
13314;BME280;6725;48.112;11.604;2023-02-01T15:08:44;95664.06;;;5.63;100.00
13314;BME280;6725;48.112;11.604;2023-02-01T15:11:14;95663.94;;;5.56;100.00
13314;BME280;6725;48.112;11.604;2023-02-01T15:13:40;95674.72;;;5.52;100.00
13314;BME280;6725;48.112;11.604;2023-02-01T15:16:16;95671.56;;;5.47;100.00
13314;BME280;6725;48.112;11.604;2023-02-01T15:18:41;95680.09;;;5.49;100.00
13314;BME280;6725;48.112;11.604;2023-02-01T15:21:20;95679.31;;;5.48;100.00
13314;BME280;6725;48.112;11.604;2023-02-01T15:23:46;95676.25;;;5.50;100.00
13314;BME280;6725;48.112;11.604;2023-02-01T15:26:32;95683.06;;;5.40;100.00
13314;BME280;6725;48.112;11.604;2023-02-01T15:28:58;95690.16;;;5.26;100.00
13314;BME280;6725;48.112;11.604;2023-02-01T15:31:44;95675.63;;;5.11;100.00
13314;BME280;6725;48.112;11.604;2023-02-01T15:34:10;95681.66;;;5.05;100.00
13314;BME280;6725;48.112;11.604;2023-02-01T15:36:36;95681.03;;;5.11;100.00
13314;BME280;6725;48.112;11.604;2023-02-01T15:42:00;95678.34;;;4.92;100.00
13314;BME280;6725;48.112;11.604;2023-02-01T15:44:47;95677.78;;;4.61;100.00
13314;BME280;6725;48.112;11.604;2023-02-01T15:47:31;95674.78;;;4.66;100.00
13314;BME280;6725;48.112;11.604;2023-02-01T15:49:58;95671.97;;;4.59;100.00
13314;BME280;6725;48.112;11.604;2023-02-01T15:52:33;95657.28;;;4.60;100.00
13314;BME280;6725;48.112;11.604;2023-02-01T15:55:02;95664.56;;;4.56;100.00
13314;BME280;6725;48.112;11.604;2023-02-01T15:57:32;95670.81;;;4.60;100.00